createdAt,value
2023-03-02T00:04:00.149Z,102205.63
2023-03-02T00:14:01.464Z,102200.41
2023-03-02T00:24:02.716Z,102197.78
2023-03-02T00:34:05.284Z,102205.72
2023-03-02T00:44:06.574Z,102205.66
2023-03-02T00:54:07.870Z,102200.44
2023-03-02T01:04:09.118Z,102200.44
2023-03-02T01:14:10.405Z,102192.53
2023-03-02T01:24:11.664Z,102182.06
2023-03-02T01:34:12.914Z,102176.78
2023-03-02T01:44:14.190Z,102171.53
2023-03-02T01:54:15.466Z,102156.69
2023-03-02T02:04:18.297Z,102154.03
2023-03-02T02:14:19.623Z,102155.75
2023-03-02T02:24:20.868Z,102146.97
2023-03-02T02:34:22.125Z,102136.47
2023-03-02T02:44:23.380Z,102135.50
2023-03-02T02:54:24.736Z,102121.59
2023-03-02T03:04:26.125Z,102131.94
2023-03-02T03:14:27.397Z,102136.34
2023-03-02T03:24:28.690Z,102121.50
2023-03-02T03:34:29.943Z,102112.69
2023-03-02T03:44:31.198Z,102115.28
2023-03-02T03:54:32.454Z,102123.16
2023-03-02T04:04:33.722Z,102127.38
2023-03-02T04:14:34.965Z,102126.53
2023-03-02T04:24:36.218Z,102118.66
2023-03-02T04:34:37.460Z,102123.88
2023-03-02T04:44:38.725Z,102115.09
2023-03-02T04:54:40.014Z,102120.31
2023-03-02T05:04:41.334Z,102126.41
2023-03-02T05:14:44.318Z,102122.03
2023-03-02T05:24:46.927Z,102134.19
2023-03-02T05:34:48.164Z,102126.22
2023-03-02T05:44:49.413Z,102124.53
2023-03-02T05:54:50.637Z,102125.50
2023-03-02T06:04:51.907Z,102121.94
2023-03-02T06:14:53.207Z,102121.91
2023-03-02T06:24:54.485Z,102122.72
2023-03-02T06:34:55.737Z,102128.72
2023-03-02T06:44:56.981Z,102145.28
2023-03-02T06:54:58.259Z,102153.13
2023-03-02T07:04:59.532Z,102150.47
2023-03-02T07:15:00.809Z,102164.41
2023-03-02T07:25:02.040Z,102161.81
2023-03-02T07:35:03.291Z,102152.19
2023-03-02T07:45:04.534Z,102159.97
2023-03-02T07:55:05.814Z,102161.59
2023-03-02T08:05:07.091Z,102152.66
2023-03-02T08:15:08.341Z,102164.81
2023-03-02T08:25:09.601Z,102166.59
2023-03-02T08:35:10.889Z,102171.00
2023-03-02T08:45:12.202Z,102167.47
2023-03-02T08:55:13.477Z,102155.28
2023-03-02T09:05:14.769Z,102152.72
2023-03-02T09:15:35.657Z,102144.03
2023-03-02T09:25:40.557Z,102143.19
2023-03-02T09:35:50.993Z,102141.50
2023-03-02T09:45:58.573Z,102139.66
2023-03-02T09:56:05.120Z,102140.56
2023-03-02T10:06:06.841Z,102130.94
2023-03-02T10:26:30.170Z,102129.25
2023-03-02T10:36:41.809Z,102131.81
2023-03-02T10:46:46.880Z,102130.13
2023-03-02T10:56:55.334Z,102117.03
2023-03-02T11:07:06.982Z,102117.91
2023-03-02T11:17:11.553Z,102103.06
2023-03-02T11:27:19.750Z,102095.25
2023-03-02T11:37:27.910Z,102100.53
2023-03-02T11:47:35.143Z,102081.31
2023-03-02T11:57:46.181Z,102091.81
2023-03-02T12:07:56.787Z,102074.25
2023-03-02T12:18:00.711Z,102060.31
2023-03-02T12:28:07.783Z,102058.56
2023-03-02T12:38:11.212Z,102054.19
2023-03-02T12:48:24.444Z,102061.09
2023-03-02T12:58:35.821Z,102041.00
2023-03-02T13:08:41.544Z,102034.91
2023-03-02T13:18:50.606Z,102023.53
2023-03-02T13:28:58.620Z,102013.03
2023-03-02T13:39:00.457Z,101999.06
2023-03-02T13:59:23.821Z,101972.91
2023-03-02T14:09:25.687Z,101977.25
2023-03-02T14:19:38.591Z,101978.13
2023-03-02T14:29:48.640Z,101969.34
2023-03-02T14:39:50.594Z,101965.78
2023-03-02T15:00:15.644Z,101938.81
2023-03-02T15:10:23.597Z,101946.59
2023-03-02T15:20:30.941Z,101939.59
2023-03-02T15:30:42.303Z,101925.63
2023-03-02T15:40:46.672Z,101921.34
2023-03-02T15:50:48.581Z,101929.31
2023-03-02T16:01:02.692Z,101926.84
2023-03-02T16:11:13.271Z,101930.38
2023-03-02T16:21:20.595Z,101933.03
2023-03-02T16:31:29.709Z,101930.50
2023-03-02T16:41:37.927Z,101943.66
2023-03-02T16:51:45.688Z,101958.56
2023-03-02T17:01:53.688Z,101965.56
2023-03-02T17:12:01.652Z,101972.53
2023-03-02T17:22:13.063Z,101988.34
2023-03-02T17:32:14.477Z,102011.91
2023-03-02T17:42:15.819Z,102025.84
2023-03-02T17:52:17.103Z,102035.50
2023-03-02T18:02:18.366Z,102049.50
2023-03-02T18:12:19.615Z,102058.25
2023-03-02T18:22:20.836Z,102073.16
2023-03-02T18:32:22.164Z,102084.41
2023-03-02T18:42:23.509Z,102096.78
2023-03-02T18:52:24.814Z,102108.97
2023-03-02T19:02:26.142Z,102118.56
2023-03-02T19:12:27.504Z,102132.47
2023-03-02T19:22:28.744Z,102133.41
2023-03-02T19:32:30.057Z,102141.25
2023-03-02T19:42:31.352Z,102152.63
2023-03-02T19:52:32.581Z,102147.44
2023-03-02T20:02:33.899Z,102154.31
2023-03-02T20:12:35.188Z,102151.72
2023-03-02T20:22:36.444Z,102155.25
2023-03-02T20:32:37.817Z,102165.69
2023-03-02T20:42:39.094Z,102182.28
2023-03-02T20:52:40.433Z,102182.28
2023-03-02T21:02:41.725Z,102185.72
2023-03-02T21:12:44.078Z,102188.41
2023-03-02T21:22:45.482Z,102196.22
2023-03-02T21:32:48.856Z,102191.03
2023-03-02T21:42:50.082Z,102189.34
2023-03-02T21:52:51.402Z,102183.19
2023-03-02T22:02:52.691Z,102175.44
2023-03-02T22:12:53.953Z,102178.91
2023-03-02T22:22:55.255Z,102187.63
2023-03-02T22:32:56.533Z,102171.97
2023-03-02T22:42:57.803Z,102185.06
2023-03-02T22:52:59.040Z,102183.34
2023-03-02T23:03:00.320Z,102182.50
2023-03-02T23:13:01.668Z,102182.53
2023-03-02T23:23:02.975Z,102187.75
2023-03-02T23:33:04.313Z,102195.63
2023-03-02T23:43:05.604Z,102185.16
2023-03-02T23:53:06.849Z,102192.25
